Rockwells Mills, New York
Current Conditions -  °F | °C
As of 10:53 AM on Tuesday 21 Oct 2014 (Local Time) from KBGM Reporting Station
Overcast Overcast  
Wind Chill: 51°   Ceiling: 1800
Heat Index: 51°   Visibility: 10mi
Dew Point: 47°   Wind: 5mph
Humidity: 86%   Direction: 170°S
Pressure: 29.85"   Gusts: NA
Location:  42.5358°N, 75.3475°W
Report Text: KBGM 211453Z 17004KT 10SM OVC018 11/08 A2985 RMK AO2 SLP112 T01060083 50005
Loading
Personal Weather Stations






























Interactive Weather Map
Tropical Storm Tracking
New forecast layout! Learn more

10-Day Weather Forecast

Advertisements
Track Severe Weather on mobile